Time;durP1;ratioP1;P1;durP2;ratioP2;P2;SDS_P1;SDS_P2;PMS_P1;PMS_P2;Temp;Humidity;BMP_temperature;BMP_pressure;BME280_temperature;BME280_humidity;BME280_pressure;Samples;Min_cycle;Max_cycle;Signal;HPM_P1;HPM_P2
2023/04/04 00:00:35;;;;;;;6.20;3.75;;;;;;;8.41;89.96;100118.81;4918249;29;19919;-85
2023/04/04 00:03:04;;;;;;;7.00;3.50;;;;;;;8.59;89.55;100148.19;4914696;29;20048;-85
2023/04/04 00:05:30;;;;;;;6.53;3.22;;;;;;;8.64;89.43;100133.34;4917517;29;20044;-85
2023/04/04 00:07:56;;;;;;;6.28;3.55;;;;;;;8.58;89.31;100125.94;4906577;29;20388;-86
2023/04/04 00:10:22;;;;;;;7.28;3.88;;;;;;;8.50;89.54;100091.06;4904758;29;20072;-86
2023/04/04 00:12:48;;;;;;;6.35;3.22;;;;;;;8.59;89.07;100102.66;4916653;29;20527;-87
2023/04/04 00:15:14;;;;;;;5.47;3.42;;;;;;;8.56;88.72;100082.38;4905549;29;20040;-87
2023/04/04 00:17:40;;;;;;;8.25;3.35;;;;;;;8.52;88.45;100072.13;4908295;29;20047;-86
2023/04/04 00:20:06;;;;;;;8.27;3.65;;;;;;;8.65;88.44;100089.44;4920736;29;20071;-86
2023/04/04 00:22:32;;;;;;;5.13;3.00;;;;;;;8.59;88.35;100079.38;4916118;29;20099;-87
2023/04/04 00:24:59;;;;;;;5.85;3.38;;;;;;;8.52;88.31;100078.34;4919661;29;20055;-85
2023/04/04 00:27:25;;;;;;;6.25;3.13;;;;;;;8.65;88.26;100094.78;4912452;29;20059;-86
2023/04/04 00:29:52;;;;;;;5.32;3.08;;;;;;;8.60;88.04;100091.78;4911018;29;20099;-87
2023/04/04 00:32:27;;;;;;;8.23;3.17;;;;;;;8.57;87.98;100077.84;4902821;29;20047;-85
2023/04/04 00:34:52;;;;;;;5.72;3.28;;;;;;;8.70;88.19;100090.81;4923553;29;20072;-85
2023/04/04 00:37:20;;;;;;;4.55;2.33;;;;;;;8.63;87.63;100061.97;4918041;29;20063;-85
2023/04/04 00:39:48;;;;;;;6.35;3.20;;;;;;;8.58;87.60;100063.47;4913710;29;20055;-84
2023/04/04 00:42:17;;;;;;;5.90;3.20;;;;;;;8.72;87.63;100083.44;4917804;29;20059;-84
2023/04/04 00:44:43;;;;;;;6.60;3.17;;;;;;;8.55;87.63;100045.88;4927448;29;20039;-83
2023/04/04 00:47:09;;;;;;;;;;;;;;;8.79;87.50;100052.31;4925353;29;20077;-84
2023/04/04 00:49:36;;;;;;;6.95;2.60;;;;;;;8.68;87.73;100048.06;4929529;29;19919;-86
2023/04/04 00:52:02;;;;;;;6.32;3.15;;;;;;;8.68;87.85;100060.63;4887354;29;20134;-84
2023/04/04 00:54:30;;;;;;;5.38;3.30;;;;;;;8.73;87.57;100044.91;4918656;29;20586;-83
2023/04/04 00:56:55;;;;;;;5.53;2.92;;;;;;;8.58;87.71;100023.28;4915022;29;20043;-86
2023/04/04 00:59:23;;;;;;;6.40;3.28;;;;;;;8.76;87.72;100041.91;4912039;29;20051;-84
2023/04/04 01:01:49;;;;;;;7.20;3.50;;;;;;;8.69;87.42;100024.81;4903675;29;20044;-82
2023/04/04 01:04:15;;;;;;;6.53;3.60;;;;;;;8.78;87.23;100047.94;4917609;29;20051;-83
2023/04/04 01:06:44;;;;;;;5.32;2.83;;;;;;;8.78;87.04;100037.19;4913841;29;20036;-84
2023/04/04 01:09:16;;;;;;;5.65;3.28;;;;;;;8.72;87.39;100019.94;4911351;29;20040;-83
2023/04/04 01:11:44;;;;;;;5.43;2.42;;;;;;;8.68;87.50;100023.94;4930727;29;20369;-84
2023/04/04 01:14:10;;;;;;;4.88;3.00;;;;;;;8.69;87.66;100016.78;4907820;29;20442;-84
2023/04/04 01:16:37;;;;;;;6.65;2.80;;;;;;;8.73;87.76;100004.69;4914069;29;20052;-83
2023/04/04 01:19:05;;;;;;;7.88;3.20;;;;;;;8.65;87.55;99984.94;4926742;29;20052;-85
2023/04/04 01:21:31;;;;;;;6.57;3.17;;;;;;;8.70;87.33;99988.97;4931153;29;20044;-84
2023/04/04 01:24:01;;;;;;;5.35;2.90;;;;;;;8.81;87.30;100016.28;4910219;29;20106;-81
2023/04/04 01:26:27;;;;;;;8.52;3.83;;;;;;;8.82;87.32;100020.63;4899642;29;20082;-83
2023/04/04 01:28:54;;;;;;;6.90;3.28;;;;;;;8.85;87.65;100022.16;4927972;29;20130;-83
2023/04/04 01:31:41;;;;;;;7.57;3.45;;;;;;;8.83;87.68;99989.31;4915603;29;20401;-83
2023/04/04 01:34:22;;;;;;;8.93;3.03;;;;;;;8.80;87.84;100008.41;4902352;29;20134;-83
2023/04/04 01:37:03;;;;;;;7.75;3.22;;;;;;;8.79;87.92;99998.69;4920679;29;20036;-84
2023/04/04 01:39:36;;;;;;;8.65;3.70;;;;;;;8.63;88.02;99964.66;4893634;29;20058;-84
2023/04/04 01:42:04;;;;;;;6.25;3.58;;;;;;;8.77;88.09;99995.34;4915290;29;20042;-83
2023/04/04 01:44:32;;;;;;;6.68;3.70;;;;;;;8.71;88.19;99974.53;4914371;29;20051;-82
2023/04/04 01:46:58;;;;;;;7.07;3.78;;;;;;;8.79;88.28;99979.94;4916188;29;20051;-82
2023/04/04 01:49:25;;;;;;;6.07;3.75;;;;;;;8.81;88.26;99977.94;4913264;29;20067;-82
2023/04/04 01:51:51;;;;;;;6.13;3.60;;;;;;;8.79;88.39;99945.09;4915501;29;20462;-86
2023/04/04 01:54:20;;;;;;;7.43;3.70;;;;;;;8.75;88.32;99938.38;4905377;29;20056;-85
2023/04/04 01:56:45;;;;;;;6.60;3.60;;;;;;;8.66;88.39;99925.00;4915389;29;20047;-83
2023/04/04 01:59:11;;;;;;;8.10;3.90;;;;;;;8.80;88.51;99938.72;4897742;29;20115;-84
2023/04/04 02:01:39;;;;;;;6.53;4.00;;;;;;;8.71;88.44;99899.50;4891988;29;20479;-83
2023/04/04 02:04:04;;;;;;;9.00;4.80;;;;;;;8.75;88.60;99900.84;4928227;29;20043;-84
2023/04/04 02:06:31;;;;;;;8.95;4.32;;;;;;;8.89;88.27;99897.50;4911259;29;20147;-84
2023/04/04 02:08:56;;;;;;;8.85;4.40;;;;;;;8.88;88.62;99885.13;4931572;29;20547;-83
2023/04/04 02:11:23;;;;;;;9.52;5.32;;;;;;;8.88;88.56;99885.13;4938790;29;20047;-82
2023/04/04 02:13:49;;;;;;;9.77;5.18;;;;;;;8.86;88.53;99873.72;4919797;29;20069;-83
2023/04/04 02:16:17;;;;;;;9.48;4.63;;;;;;;8.89;88.23;99876.06;4931354;29;20039;-84
2023/04/04 02:18:42;;;;;;;8.02;4.75;;;;;;;8.95;88.24;99864.66;4925596;29;20059;-83
2023/04/04 02:21:08;;;;;;;9.52;5.22;;;;;;;8.88;88.25;99840.38;4917906;29;20044;-83
2023/04/04 02:23:33;;;;;;;11.82;5.78;;;;;;;8.98;88.99;99848.22;4903016;29;20040;-83
2023/04/04 02:25:59;;;;;;;10.20;4.38;;;;;;;8.97;88.83;99833.16;4917280;29;20043;-83
2023/04/04 02:28:27;;;;;;;9.80;6.00;;;;;;;9.13;89.07;99839.47;4931154;29;20096;-84
2023/04/04 02:30:56;;;;;;;10.55;5.65;;;;;;;9.23;88.95;99846.34;4915186;29;20126;-82
2023/04/04 02:33:21;;;;;;;10.93;5.88;;;;;;;9.21;88.79;99859.06;4916508;29;20469;-83
2023/04/04 02:35:48;;;;;;;10.27;5.20;;;;;;;9.12;88.63;99849.38;4906801;29;20070;-83
2023/04/04 02:38:15;;;;;;;9.68;5.65;;;;;;;9.21;88.38;99839.47;4912946;29;20051;-83
2023/04/04 02:40:44;;;;;;;11.00;6.20;;;;;;;9.31;88.83;99861.56;4915042;29;20048;-82
2023/04/04 02:43:09;;;;;;;8.63;4.50;;;;;;;9.34;88.45;99866.59;4897134;29;20503;-83
2023/04/04 02:45:36;;;;;;;9.10;4.47;;;;;;;9.20;88.18;99841.31;4914089;29;20538;-82
2023/04/04 02:48:02;;;;;;;8.48;5.20;;;;;;;9.15;88.39;99813.34;4900448;29;20048;-84
2023/04/04 02:50:30;;;;;;;10.30;4.68;;;;;;;9.28;88.05;99824.34;4921747;29;20576;-84
2023/04/04 02:53:00;;;;;;;14.75;5.82;;;;;;;9.34;87.84;99820.13;4908034;29;20044;-84
2023/04/04 02:55:25;;;;;;;10.95;5.22;;;;;;;9.15;87.87;99811.47;4906512;29;20048;-81
2023/04/04 02:57:57;;;;;;;10.30;5.50;;;;;;;9.33;87.69;99823.84;4906829;29;20417;-84
2023/04/04 03:00:22;;;;;;;15.73;5.00;;;;;;;9.33;87.44;99824.66;4913477;29;20912;-83
2023/04/04 03:02:54;;;;;;;8.07;5.03;;;;;;;9.23;87.18;99802.59;4927909;29;20047;-83
2023/04/04 03:05:24;;;;;;;10.27;5.70;;;;;;;9.31;86.77;99805.22;4896962;29;20051;-83
2023/04/04 03:07:56;;;;;;;11.95;5.60;;;;;;;9.35;86.63;99817.28;4927469;29;20507;-83
2023/04/04 03:10:28;;;;;;;8.02;4.60;;;;;;;9.33;87.16;99805.91;4906914;29;20054;-83
2023/04/04 03:12:57;;;;;;;9.30;4.63;;;;;;;9.30;87.44;99809.75;4928139;29;20051;-83
2023/04/04 03:15:26;;;;;;;11.52;5.50;;;;;;;9.32;86.97;99804.22;4909257;29;20193;-84
2023/04/04 03:17:52;;;;;;;11.27;5.35;;;;;;;9.36;87.15;99827.00;4901363;29;20066;-84
2023/04/04 03:20:21;;;;;;;8.50;5.38;;;;;;;9.30;87.10;99808.94;4908895;29;20460;-84
2023/04/04 03:22:50;;;;;;;11.02;5.25;;;;;;;9.34;86.81;99834.41;4911645;29;20409;-86
2023/04/04 03:25:16;;;;;;;11.25;5.47;;;;;;;9.32;86.94;99801.56;4931021;29;20107;-82
2023/04/04 03:27:42;;;;;;;8.43;5.18;;;;;;;9.38;86.79;99794.66;4911058;29;20039;-83
2023/04/04 03:30:08;;;;;;;12.65;5.88;;;;;;;9.31;86.72;99805.22;4913546;29;20108;-84
2023/04/04 03:32:38;;;;;;;9.77;5.25;;;;;;;9.34;86.75;99814.78;4914335;29;20048;-83
2023/04/04 03:35:08;;;;;;;14.27;6.50;;;;;;;9.11;86.98;99809.31;4931138;29;20526;-82
2023/04/04 03:37:34;;;;;;;15.68;5.63;;;;;;;9.08;87.38;99797.94;4932754;29;20048;-83
2023/04/04 03:40:01;;;;;;;12.32;6.20;;;;;;;9.08;87.55;99808.69;4913428;29;20047;-82
2023/04/04 03:42:27;;;;;;;;;;;;;;;9.20;87.95;99840.47;4911656;29;20044;-82
2023/04/04 03:44:53;;;;;;;12.52;6.32;;;;;;;9.11;88.20;99836.13;4932035;29;19923;-85
2023/04/04 03:47:19;;;;;;;13.48;6.68;;;;;;;9.13;88.00;99844.84;4923369;29;20106;-83
2023/04/04 03:49:46;;;;;;;10.52;5.95;;;;;;;8.98;88.26;99824.09;4926906;29;20054;-83
2023/04/04 03:52:12;;;;;;;12.77;6.63;;;;;;;9.16;88.06;99845.34;4920502;29;20055;-82
2023/04/04 03:54:40;;;;;;;11.63;6.50;;;;;;;9.09;87.88;99849.72;4920932;29;20063;-84
2023/04/04 03:57:06;;;;;;;10.90;6.55;;;;;;;9.23;87.90;99858.91;4926173;29;20126;-82
2023/04/04 03:59:31;;;;;;;10.52;6.32;;;;;;;9.14;87.32;99835.81;4915219;29;20484;-82
2023/04/04 04:01:58;;;;;;;15.52;7.22;;;;;;;9.28;87.52;99849.34;4926445;29;20040;-83
2023/04/04 04:04:24;;;;;;;12.63;6.43;;;;;;;9.34;87.85;99863.06;4930441;29;20051;-83
2023/04/04 04:06:50;;;;;;;10.90;6.35;;;;;;;9.23;88.03;99832.91;4913980;29;20043;-84
2023/04/04 04:09:15;;;;;;;12.00;6.60;;;;;;;9.26;88.14;99831.75;4925350;29;20092;-83
2023/04/04 04:11:41;;;;;;;10.05;6.88;;;;;;;9.37;87.94;99828.69;4902997;29;20058;-82
2023/04/04 04:14:07;;;;;;;11.20;6.35;;;;;;;9.33;87.65;99813.94;4933837;29;20492;-83
2023/04/04 04:16:35;;;;;;;12.00;6.53;;;;;;;9.46;87.49;99819.59;4912390;29;20044;-84
2023/04/04 04:19:01;;;;;;;11.32;6.40;;;;;;;9.40;87.47;99820.28;4932301;29;20031;-85
2023/04/04 04:21:27;;;;;;;;;;;;;;;9.34;87.61;99812.94;4917662;29;20079;-85
2023/04/04 04:23:55;;;;;;;11.57;6.13;;;;;;;9.31;87.93;99810.59;4929186;29;20010;-86
2023/04/04 04:26:21;;;;;;;13.13;6.55;;;;;;;9.12;88.05;99768.09;4932365;29;20040;-81
2023/04/04 04:28:49;;;;;;;13.27;6.32;;;;;;;9.27;88.12;99785.13;4914960;29;20054;-83
2023/04/04 04:31:16;;;;;;;11.75;6.25;;;;;;;9.30;87.92;99777.56;4900873;29;20043;-84
2023/04/04 04:33:41;;;;;;;10.88;6.90;;;;;;;9.28;87.86;99760.81;4914885;29;20150;-82
2023/04/04 04:36:08;;;;;;;10.73;5.80;;;;;;;9.32;87.77;99737.19;4934903;29;20442;-84
2023/04/04 04:38:34;;;;;;;10.65;6.10;;;;;;;9.42;87.46;99737.78;4904805;29;20053;-82
2023/04/04 04:41:01;;;;;;;11.95;5.80;;;;;;;9.23;87.18;99696.13;4930648;29;20048;-82
2023/04/04 04:43:27;;;;;;;10.07;5.75;;;;;;;9.44;86.79;99725.03;4915647;29;20381;-82
2023/04/04 04:45:55;;;;;;;11.00;5.47;;;;;;;9.42;86.74;99727.06;4928643;29;20051;-83
2023/04/04 04:48:23;;;;;;;12.25;6.25;;;;;;;9.36;86.85;99703.59;4927454;29;20051;-81
2023/04/04 04:50:50;;;;;;;12.60;6.10;;;;;;;9.36;86.86;99716.19;4932876;29;20044;-84
2023/04/04 04:53:16;;;;;;;12.30;6.45;;;;;;;9.44;86.86;99745.66;4932394;29;20094;-84
2023/04/04 04:55:43;;;;;;;11.50;6.43;;;;;;;9.23;86.63;99717.59;4915907;29;20048;-82
2023/04/04 04:58:09;;;;;;;12.05;6.82;;;;;;;9.44;86.44;99754.53;4929685;29;20099;-82
2023/04/04 05:00:36;;;;;;;;;;;;;;;9.59;85.90;99780.63;4914748;29;20103;-83
2023/04/04 05:03:05;;;;;;;12.73;5.95;;;;;;;9.51;86.29;99762.72;4914855;29;19926;-84
2023/04/04 05:05:35;;;;;;;12.32;6.90;;;;;;;9.59;85.80;99797.56;4913689;29;20052;-83
2023/04/04 05:08:01;;;;;;;12.70;6.25;;;;;;;9.56;86.03;99814.03;4916064;29;20110;-82
2023/04/04 05:10:29;;;;;;;16.63;6.82;;;;;;;9.58;85.80;99803.94;4934408;29;20047;-81
2023/04/04 05:12:56;;;;;;;10.02;5.60;;;;;;;9.66;85.45;99819.16;4916351;29;20036;-82
2023/04/04 05:15:30;;;;;;;14.70;6.60;;;;;;;9.70;85.09;99832.06;4917872;29;20102;-83
2023/04/04 05:17:57;;;;;;;11.27;6.40;;;;;;;9.60;85.38;99835.97;4910597;29;20059;-83
2023/04/04 05:20:22;;;;;;;12.63;6.63;;;;;;;9.62;85.42;99840.16;4928630;29;20039;-83
2023/04/04 05:22:51;;;;;;;9.57;5.22;;;;;;;9.59;85.58;99843.19;4915903;29;20036;-82
2023/04/04 05:25:17;;;;;;;10.85;5.63;;;;;;;9.75;85.10;99879.84;4933395;29;20048;-85
2023/04/04 05:27:47;;;;;;;11.27;6.13;;;;;;;9.77;84.76;99863.59;4917886;29;20044;-81
2023/04/04 05:30:12;;;;;;;10.77;5.90;;;;;;;9.83;84.53;99873.59;4931412;29;20047;-82
2023/04/04 05:32:40;;;;;;;14.15;6.10;;;;;;;9.90;84.23;99874.56;4932313;29;20428;-83
2023/04/04 05:35:06;;;;;;;11.88;5.90;;;;;;;10.00;83.87;99874.38;4912114;29;20488;-83
2023/04/04 05:37:41;;;;;;;14.50;6.05;;;;;;;10.03;83.58;99868.66;4931174;29;20036;-82
2023/04/04 05:40:07;;;;;;;11.70;5.10;;;;;;;10.06;83.69;99876.34;4933356;29;20476;-83
2023/04/04 05:42:34;;;;;;;10.15;5.10;;;;;;;10.06;83.50;99865.59;4931734;29;20043;-82
2023/04/04 05:45:00;;;;;;;12.80;5.03;;;;;;;10.13;83.16;99863.88;4917306;29;20382;-83
2023/04/04 05:47:29;;;;;;;13.40;4.90;;;;;;;10.12;83.39;99883.69;4916311;29;20067;-85
2023/04/04 05:49:55;;;;;;;14.80;4.10;;;;;;;10.06;83.64;99879.03;4932196;29;20063;-83
2023/04/04 05:52:21;;;;;;;9.73;4.75;;;;;;;10.04;83.77;99881.03;4918414;29;20047;-83
2023/04/04 05:54:51;;;;;;;10.93;4.85;;;;;;;10.01;83.61;99865.28;4938362;29;20064;-83
2023/04/04 05:57:19;;;;;;;10.52;4.93;;;;;;;10.09;83.71;99879.53;4933451;29;20067;-84
2023/04/04 05:59:46;;;;;;;13.20;5.78;;;;;;;10.02;83.62;99861.59;4918222;29;20134;-83
2023/04/04 06:02:13;;;;;;;9.65;4.95;;;;;;;10.17;83.21;99873.25;4932149;29;20051;-84
2023/04/04 06:04:39;;;;;;;10.93;5.43;;;;;;;10.08;83.62;99877.00;4929184;29;20130;-84
2023/04/04 06:07:06;;;;;;;7.65;5.03;;;;;;;10.12;83.62;99873.78;4915777;29;20035;-83
2023/04/04 06:09:32;;;;;;;8.45;4.60;;;;;;;10.08;83.68;99858.19;4931709;29;20087;-83
2023/04/04 06:11:58;;;;;;;9.73;4.90;;;;;;;10.05;83.99;99847.81;4911619;29;20500;-83
2023/04/04 06:14:28;;;;;;;8.90;5.38;;;;;;;10.09;84.00;99852.66;4929727;29;20047;-83
2023/04/04 06:16:53;;;;;;;11.90;4.80;;;;;;;10.06;83.82;99857.53;4933702;29;20874;-84
2023/04/04 06:19:20;;;;;;;;;;;;;;;10.05;84.15;99861.25;4917060;29;20147;-81
2023/04/04 06:21:46;;;;;;;9.85;4.85;;;;;;;9.95;84.54;99845.38;4930095;29;20387;-83
2023/04/04 06:24:15;;;;;;;15.07;4.68;;;;;;;9.91;84.47;99857.47;4911337;29;20173;-84
2023/04/04 06:26:41;;;;;;;11.38;4.53;;;;;;;9.93;84.75;99853.59;4911751;29;20154;-83
2023/04/04 06:29:08;;;;;;;9.70;4.57;;;;;;;10.03;84.85;99876.69;4900064;29;20078;-82
2023/04/04 06:31:35;;;;;;;13.45;5.07;;;;;;;10.05;84.74;99866.63;4931308;29;20131;-85
2023/04/04 06:34:01;;;;;;;9.73;5.35;;;;;;;10.00;85.06;99861.78;4919213;29;20119;-84
2023/04/04 06:36:30;;;;;;;17.00;5.50;;;;;;;10.00;84.81;99837.63;4918113;29;20042;-85
2023/04/04 06:39:00;;;;;;;9.68;4.38;;;;;;;10.05;84.52;99834.41;4912754;29;20469;-81
2023/04/04 06:41:26;;;;;;;11.05;4.53;;;;;;;10.05;84.35;99829.03;4907571;29;20077;-82
2023/04/04 06:43:51;;;;;;;13.05;4.90;;;;;;;10.10;84.68;99810.53;4925066;29;20516;-82
2023/04/04 06:46:17;;;;;;;14.00;5.13;;;;;;;10.20;84.62;99821.84;4929838;29;20062;-80
2023/04/04 06:48:43;;;;;;;10.48;4.78;;;;;;;10.13;84.49;99788.66;4928541;29;20414;-82
2023/04/04 06:51:11;;;;;;;15.95;4.82;;;;;;;10.35;84.10;99792.41;4930196;29;20465;-82
2023/04/04 06:53:37;;;;;;;14.70;5.82;;;;;;;10.54;83.77;99780.31;4927122;29;20208;-82
2023/04/04 06:56:03;;;;;;;9.60;4.53;;;;;;;10.62;82.30;99776.69;4918276;29;20127;-82
2023/04/04 06:58:30;;;;;;;9.90;4.78;;;;;;;10.82;81.52;99752.81;4894396;29;20052;-81
2023/04/04 07:00:58;;;;;;;11.25;5.30;;;;;;;10.97;83.94;99762.53;4909355;29;20077;-84
2023/04/04 07:03:26;;;;;;;9.95;4.80;;;;;;;11.08;82.01;99733.53;4923612;29;20043;-83
2023/04/04 07:05:53;;;;;;;12.60;4.80;;;;;;;11.19;80.62;99747.34;4915381;29;20458;-84
2023/04/04 07:08:19;;;;;;;12.05;5.57;;;;;;;10.89;81.21;99711.56;4933542;29;20128;-84
2023/04/04 07:10:44;;;;;;;;;;;;;;;11.14;81.33;99749.75;4917451;29;20432;-84
2023/04/04 07:13:11;;;;;;;11.40;5.60;;;;;;;11.20;81.74;99749.00;4916591;29;19923;-84
2023/04/04 07:15:37;;;;;;;13.82;5.25;;;;;;;10.99;81.03;99771.25;4909472;29;20051;-84
2023/04/04 07:18:03;;;;;;;11.80;5.57;;;;;;;10.91;81.42;99787.50;4918091;29;20389;-83
2023/04/04 07:20:29;;;;;;;10.90;5.18;;;;;;;10.96;81.00;99805.78;4935329;29;20146;-84
2023/04/04 07:22:55;;;;;;;13.85;5.60;;;;;;;10.77;82.08;99777.56;4898196;29;20051;-87
2023/04/04 07:25:20;;;;;;;12.80;5.28;;;;;;;10.80;81.51;99803.25;4896373;29;20075;-83
2023/04/04 07:27:46;;;;;;;13.50;5.03;;;;;;;10.85;81.65;99793.59;4897070;29;20048;-82
2023/04/04 07:30:12;;;;;;;13.32;5.47;;;;;;;10.87;81.46;99786.19;4913427;29;20107;-83
2023/04/04 07:32:39;;;;;;;16.08;5.07;;;;;;;10.91;81.18;99776.75;4914190;29;20054;-83
2023/04/04 07:35:07;;;;;;;13.48;5.53;;;;;;;10.89;81.32;99776.09;4921599;29;20052;-81
2023/04/04 07:37:32;;;;;;;19.65;6.85;;;;;;;11.06;80.85;99774.06;4913453;29;20036;-85
2023/04/04 07:40:03;;;;;;;14.57;5.93;;;;;;;10.99;80.78;99759.69;4904372;29;20112;-86
2023/04/04 07:42:33;;;;;;;10.82;5.20;;;;;;;10.93;80.73;99746.97;4940106;29;20325;-89
2023/04/04 07:44:58;;;;;;;15.20;5.72;;;;;;;10.93;80.46;99733.50;4935799;29;20050;-85
2023/04/04 07:47:29;;;;;;;18.90;5.88;;;;;;;10.93;80.56;99726.31;4928273;29;20048;-90
2023/04/04 07:49:54;;;;;;;12.02;5.70;;;;;;;11.13;79.90;99737.31;4938543;29;20127;-83
2023/04/04 07:52:23;;;;;;;13.02;5.32;;;;;;;11.21;79.22;99741.75;4931273;29;20480;-83
2023/04/04 07:54:49;;;;;;;14.98;5.55;;;;;;;10.97;80.22;99775.16;4912165;29;20063;-83
2023/04/04 07:57:19;;;;;;;14.68;5.50;;;;;;;10.53;82.06;99744.50;4936047;29;20046;-84
2023/04/04 07:59:46;;;;;;;16.90;5.82;;;;;;;10.63;82.37;99757.72;4906207;29;20401;-86
2023/04/04 08:02:15;;;;;;;17.25;6.00;;;;;;;10.85;81.90;99763.19;4923814;29;20035;-88
2023/04/04 08:04:40;;;;;;;16.38;5.53;;;;;;;10.67;81.87;99732.13;4929688;29;20114;-87
2023/04/04 08:07:07;;;;;;;16.23;5.35;;;;;;;10.54;82.44;99710.44;4933125;29;20146;-87
2023/04/04 08:09:35;;;;;;;;;;;;;;;10.72;82.55;99729.72;4917172;29;20527;-88
2023/04/04 08:12:04;;;;;;;13.85;5.70;;;;;;;10.59;82.94;99705.34;4916992;29;19919;-87
2023/04/04 08:14:48;;;;;;;13.88;5.57;;;;;;;10.58;83.34;99717.09;4901845;29;20148;-85
2023/04/04 08:17:17;;;;;;;11.75;5.65;;;;;;;10.61;83.26;99724.81;4917624;29;20032;-85
2023/04/04 08:19:56;;;;;;;14.85;5.28;;;;;;;11.09;81.84;99735.19;4916156;29;20141;-88
2023/04/04 08:22:24;;;;;;;19.85;8.77;;;;;;;11.00;81.51;99731.75;4922625;29;20052;-87
2023/04/04 08:24:53;;;;;;;12.95;5.57;;;;;;;11.16;80.40;99730.72;4898245;29;20501;-88
2023/04/04 08:27:20;;;;;;;17.67;5.97;;;;;;;11.32;79.91;99743.13;4917277;29;20036;-89
2023/04/04 08:29:49;;;;;;;15.25;5.15;;;;;;;11.34;78.98;99727.66;4922418;29;20032;-88
2023/04/04 08:32:17;;;;;;;16.27;6.75;;;;;;;11.58;78.65;99721.09;4939180;29;20043;-91
2023/04/04 08:34:54;;;;;;;13.63;5.95;;;;;;;11.66;77.72;99707.50;4915483;29;20051;-93
2023/04/04 08:38:01;;;;;;;17.15;5.28;;;;;;;12.05;77.04;99738.56;4893909;29;20045;-93
2023/04/04 08:40:37;;;;;;;13.15;5.65;;;;;;;11.94;76.22;99744.47;4914055;29;20111;-89
2023/04/04 08:43:06;;;;;;;;;;;;;;;11.88;77.73;99746.06;4917813;29;20055;-87
2023/04/04 08:45:33;;;;;;;16.67;5.38;;;;;;;11.48;78.14;99713.31;4930255;29;20029;-89
2023/04/04 08:48:02;;;;;;;14.52;5.55;;;;;;;11.42;79.17;99727.53;4902086;29;20535;-90
2023/04/04 08:50:29;;;;;;;17.02;5.75;;;;;;;11.65;78.90;99761.53;4918629;29;20052;-90
2023/04/04 08:53:03;;;;;;;12.75;5.13;;;;;;;11.98;77.59;99738.50;4913924;29;20131;-90
2023/04/04 08:55:36;;;;;;;13.85;5.47;;;;;;;12.30;76.03;99736.31;4907832;29;20188;-90
2023/04/04 08:58:12;;;;;;;16.45;5.22;;;;;;;12.38;75.51;99730.75;4922779;29;20051;-91
2023/04/04 09:00:41;;;;;;;14.13;5.25;;;;;;;12.61;74.15;99722.44;4920479;29;20055;-91
2023/04/04 09:03:33;;;;;;;15.02;5.97;;;;;;;13.04;72.92;99756.53;4927593;29;20112;-90
2023/04/04 09:05:59;;;;;;;17.98;5.50;;;;;;;12.57;74.01;99750.84;4912585;29;20048;-91
2023/04/04 09:09:16;;;;;;;14.60;4.93;;;;;;;12.49;74.28;99750.16;4918115;29;20108;-90
2023/04/04 09:12:05;;;;;;;12.63;5.05;;;;;;;12.67;73.57;99750.50;4929484;29;20493;-90
2023/04/04 09:14:30;;;;;;;18.92;5.47;;;;;;;12.38;74.12;99751.50;4912139;29;20044;-91
2023/04/04 09:16:56;;;;;;;17.50;5.57;;;;;;;12.29;76.02;99774.22;4907425;29;20481;-90
2023/04/04 09:19:26;;;;;;;;;;;;;;;12.40;75.74;99784.50;4916103;29;20060;-90
2023/04/04 09:21:59;;;;;;;14.68;5.20;;;;;;;12.39;75.67;99780.16;4922370;29;19918;-88
2023/04/04 09:24:47;;;;;;;14.77;5.50;;;;;;;12.26;75.72;99748.50;4933584;29;20045;-88
2023/04/04 09:27:13;;;;;;;15.63;5.80;;;;;;;12.58;75.02;99757.88;4921560;29;20032;-91
2023/04/04 09:29:40;;;;;;;17.95;6.32;;;;;;;13.09;73.04;99759.47;4918701;29;20153;-91
2023/04/04 09:32:23;;;;;;;18.90;5.53;;;;;;;13.04;72.63;99767.31;4928902;29;20068;-91
2023/04/04 09:34:49;;;;;;;18.58;5.43;;;;;;;13.02;72.79;99788.28;4911113;29;20477;-90
2023/04/04 09:37:17;;;;;;;16.35;5.28;;;;;;;12.63;74.26;99782.41;4916138;29;20040;-90
2023/04/04 09:39:43;;;;;;;15.15;5.60;;;;;;;12.78;74.15;99763.44;4932891;29;20115;-90
2023/04/04 09:42:12;;;;;;;14.90;5.05;;;;;;;12.85;72.99;99748.13;4915756;29;20119;-90
2023/04/04 09:44:38;;;;;;;19.17;5.22;;;;;;;12.68;73.66;99752.16;4925893;29;20050;-89
2023/04/04 09:47:26;;;;;;;15.00;5.82;;;;;;;12.71;74.79;99777.88;4928596;29;20040;-89
2023/04/04 09:50:07;;;;;;;20.20;5.95;;;;;;;12.80;73.98;99755.97;4920888;29;20058;-88
2023/04/04 09:52:36;;;;;;;19.17;5.63;;;;;;;13.15;73.05;99779.44;4931407;29;20032;-88
2023/04/04 09:55:07;;;;;;;14.98;5.10;;;;;;;13.18;72.38;99755.59;4920940;29;20066;-87
2023/04/04 09:57:36;;;;;;;20.88;5.95;;;;;;;13.29;71.44;99749.63;4912759;29;20075;-90
2023/04/04 10:00:08;;;;;;;17.10;5.50;;;;;;;13.29;72.06;99773.09;4926208;29;20541;-88
2023/04/04 10:02:42;;;;;;;13.82;5.47;;;;;;;13.39;71.70;99775.41;4941314;29;20063;-90
2023/04/04 10:05:15;;;;;;;12.10;4.80;;;;;;;13.80;70.22;99747.53;4921792;29;20044;-89
2023/04/04 10:07:46;;;;;;;21.65;5.80;;;;;;;14.06;69.37;99761.09;4934939;29;20048;-87
2023/04/04 10:10:12;;;;;;;19.20;6.05;;;;;;;14.41;68.27;99771.72;4941355;29;20043;-90
2023/04/04 10:12:40;;;;;;;17.33;5.47;;;;;;;14.39;68.46;99792.72;4922579;29;20128;-89
2023/04/04 10:15:11;;;;;;;18.95;5.90;;;;;;;14.33;68.60;99780.88;4906125;29;20068;-89
2023/04/04 10:18:19;;;;;;;19.92;6.00;;;;;;;14.53;67.67;99774.63;4919755;29;20095;-88
2023/04/04 10:20:50;;;;;;;12.75;5.40;;;;;;;13.72;69.57;99746.69;4928535;29;20115;-89
2023/04/04 10:23:26;;;;;;;17.70;6.25;;;;;;;13.93;69.36;99771.88;4931069;29;20072;-91
2023/04/04 10:25:55;;;;;;;24.25;6.70;;;;;;;14.04;69.28;99763.16;4929284;29;20028;-90
2023/04/04 10:28:21;;;;;;;26.48;7.15;;;;;;;14.30;68.04;99750.69;4906845;29;20048;-91
2023/04/04 10:31:07;;;;;;;12.88;5.00;;;;;;;14.24;67.29;99736.16;4914357;29;20134;-90
2023/04/04 10:33:58;;;;;;;21.60;6.22;;;;;;;14.60;67.18;99783.59;4922384;29;20057;-91
2023/04/04 10:36:43;;;;;;;21.42;5.53;;;;;;;14.20;67.52;99750.28;4906013;29;20048;-89
2023/04/04 10:39:35;;;;;;;16.67;5.38;;;;;;;14.31;67.60;99782.94;4922649;29;20059;-92
2023/04/04 10:42:13;;;;;;;16.45;5.50;;;;;;;14.06;68.06;99763.78;4952412;29;20032;-91
2023/04/04 10:44:43;;;;;;;18.80;5.40;;;;;;;14.33;68.09;99780.06;4931484;29;20040;-90
2023/04/04 10:47:25;;;;;;;20.88;6.63;;;;;;;14.23;67.95;99747.16;4936241;29;20051;-90
2023/04/04 10:50:06;;;;;;;18.42;6.18;;;;;;;14.40;67.95;99778.19;4939816;28;20045;-93
2023/04/04 10:52:31;;;;;;;21.33;6.38;;;;;;;14.24;67.94;99756.97;4921442;29;20063;-88
2023/04/04 10:55:05;;;;;;;16.75;5.72;;;;;;;14.37;67.81;99762.34;4932404;29;20095;-90
2023/04/04 10:57:50;;;;;;;18.27;6.00;;;;;;;14.12;68.00;99773.78;4919681;29;20047;-89
2023/04/04 11:00:22;;;;;;;;;;;;;;;13.84;69.99;99790.16;4928020;29;20059;-90
2023/04/04 11:02:58;;;;;;;18.13;5.05;;;;;;;13.72;70.29;99764.75;4916075;29;20101;-89
2023/04/04 11:05:48;;;;;;;21.77;5.72;;;;;;;13.66;70.32;99747.47;4911484;29;20146;-90
2023/04/04 11:08:24;;;;;;;23.40;5.78;;;;;;;13.96;69.69;99763.34;4910837;29;20102;-91
2023/04/04 11:10:53;;;;;;;22.58;6.50;;;;;;;13.75;70.93;99790.53;4900645;29;20505;-88
2023/04/04 11:13:34;;;;;;;19.48;5.40;;;;;;;13.69;70.92;99775.94;4928252;29;20468;-89
2023/04/04 11:16:15;;;;;;;20.42;6.72;;;;;;;13.42;72.03;99758.84;4914675;29;20036;-86
2023/04/04 11:18:45;;;;;;;23.92;6.47;;;;;;;13.53;72.28;99769.03;4908079;29;20087;-84
2023/04/04 11:21:26;;;;;;;22.77;6.10;;;;;;;13.60;72.05;99769.91;4933250;29;20039;-85
2023/04/04 11:23:57;;;;;;;19.83;5.65;;;;;;;13.74;72.00;99789.69;4931827;29;20043;-85
2023/04/04 11:26:36;;;;;;;20.50;5.75;;;;;;;13.82;71.42;99775.19;4936378;29;20437;-87
2023/04/04 11:29:07;;;;;;;19.08;5.95;;;;;;;13.57;72.82;99745.16;4938874;29;20039;-86
2023/04/04 11:31:39;;;;;;;25.48;5.68;;;;;;;13.82;71.62;99780.59;4935917;29;20048;-84
2023/04/04 11:34:08;;;;;;;20.30;6.05;;;;;;;13.95;71.37;99775.19;4925711;29;20496;-88
2023/04/04 11:36:43;;;;;;;20.05;6.18;;;;;;;14.08;70.59;99769.81;4929291;29;20058;-86
2023/04/04 11:39:23;;;;;;;20.52;5.55;;;;;;;14.18;70.20;99774.00;4926367;29;20052;-85
2023/04/04 11:42:12;;;;;;;22.08;6.18;;;;;;;14.28;69.82;99769.00;4917249;29;20447;-88
2023/04/04 11:45:02;;;;;;;22.88;8.25;;;;;;;14.32;69.55;99754.03;4924675;29;20054;-86